createdAt,value
2022-12-12T00:00:40.499Z,0.89
2022-12-12T00:03:09.843Z,1.10
2022-12-12T00:05:37.904Z,1.12
2022-12-12T00:08:06.005Z,1.37
2022-12-12T00:10:34.850Z,1.57
2022-12-12T00:13:02.649Z,1.32
2022-12-12T00:15:30.495Z,0.99
2022-12-12T00:17:58.237Z,0.92
2022-12-12T00:20:27.378Z,1.12
2022-12-12T00:22:55.285Z,0.98
2022-12-12T00:25:23.073Z,0.46
2022-12-12T00:27:50.791Z,-0.05
2022-12-12T00:30:18.602Z,0.10
2022-12-12T00:32:46.273Z,0.49
2022-12-12T00:35:14.223Z,0.47
2022-12-12T00:37:43.583Z,0.26
2022-12-12T00:40:13.553Z,0.37
2022-12-12T00:42:41.284Z,0.68
2022-12-12T00:45:10.178Z,0.45
2022-12-12T00:47:38.256Z,0.49
2022-12-12T00:50:06.992Z,0.64
2022-12-12T00:52:34.745Z,0.53
2022-12-12T00:55:04.036Z,0.70
2022-12-12T00:57:31.745Z,0.74
2022-12-12T00:59:59.642Z,1.08
2022-12-12T01:02:28.489Z,0.55
2022-12-12T01:04:56.357Z,0.93
2022-12-12T01:07:24.546Z,1.03
2022-12-12T01:09:52.388Z,0.76
2022-12-12T01:12:21.480Z,0.97
2022-12-12T01:14:49.899Z,1.02
2022-12-12T01:17:17.815Z,0.81
2022-12-12T01:19:45.549Z,1.10
2022-12-12T01:22:13.331Z,1.00
2022-12-12T01:24:41.041Z,0.92
2022-12-12T01:27:08.851Z,1.13
2022-12-12T01:29:38.024Z,1.46
2022-12-12T01:32:06.414Z,0.73
2022-12-12T01:34:34.193Z,0.85
2022-12-12T01:37:01.910Z,1.06
2022-12-12T01:39:29.601Z,0.67
2022-12-12T01:41:57.400Z,1.06
2022-12-12T01:44:42.026Z,1.23
2022-12-12T01:47:09.965Z,1.74
2022-12-12T01:49:37.906Z,1.58
2022-12-12T01:52:11.048Z,1.64
2022-12-12T01:54:43.719Z,1.55
2022-12-12T01:57:15.015Z,1.58
2022-12-12T01:59:46.610Z,1.46
2022-12-12T02:02:14.585Z,1.61
2022-12-12T02:04:43.022Z,1.28
2022-12-12T02:07:11.008Z,1.33
2022-12-12T02:09:39.684Z,1.37
2022-12-12T02:12:08.236Z,1.42
2022-12-12T02:14:41.668Z,1.28
2022-12-12T02:17:45.007Z,1.08
2022-12-12T02:20:44.546Z,1.71
2022-12-12T02:23:40.732Z,1.60
2022-12-12T02:27:05.287Z,1.26
2022-12-12T02:30:08.101Z,1.46
2022-12-12T02:32:51.190Z,1.89
2022-12-12T02:35:26.613Z,1.57
2022-12-12T02:38:05.008Z,1.91
2022-12-12T02:40:37.007Z,2.19
2022-12-12T02:43:12.492Z,1.95
2022-12-12T02:45:44.833Z,1.14
2022-12-12T02:48:20.130Z,1.48
2022-12-12T02:50:50.349Z,1.51
2022-12-12T02:53:19.970Z,1.60
2022-12-12T02:55:48.029Z,1.36
2022-12-12T02:58:16.487Z,1.19
2022-12-12T03:00:53.012Z,1.35
2022-12-12T03:03:53.740Z,1.56
2022-12-12T03:06:54.576Z,1.89
2022-12-12T03:09:34.518Z,1.48
2022-12-12T03:12:08.247Z,1.67
2022-12-12T03:14:49.118Z,0.97
2022-12-12T03:17:26.421Z,1.09
2022-12-12T03:20:04.133Z,1.60
2022-12-12T03:22:38.383Z,1.26
2022-12-12T03:25:11.038Z,1.54
2022-12-12T03:27:45.988Z,0.91
2022-12-12T03:30:17.746Z,1.17
2022-12-12T03:32:51.936Z,1.35
2022-12-12T03:35:26.012Z,1.29
2022-12-12T03:37:58.597Z,1.40
2022-12-12T03:40:30.835Z,1.13
2022-12-12T03:43:03.289Z,1.03
2022-12-12T03:45:37.965Z,0.81
2022-12-12T03:48:13.463Z,0.79
2022-12-12T03:50:50.120Z,1.25
2022-12-12T03:53:23.790Z,1.27
2022-12-12T03:55:57.779Z,0.80
2022-12-12T03:58:30.387Z,0.64
2022-12-12T04:01:00.479Z,0.83
2022-12-12T04:03:36.400Z,0.18
2022-12-12T04:06:29.998Z,0.26
2022-12-12T04:09:18.076Z,0.55
2022-12-12T04:12:23.423Z,0.50
2022-12-12T04:15:05.072Z,0.62
2022-12-12T04:17:39.496Z,0.97
2022-12-12T04:20:35.052Z,0.35
2022-12-12T04:23:17.862Z,0.96
2022-12-12T04:26:16.494Z,1.17
2022-12-12T04:28:52.347Z,1.41
2022-12-12T04:31:24.400Z,1.17
2022-12-12T04:33:57.465Z,1.24
2022-12-12T04:36:26.178Z,0.96
2022-12-12T04:38:56.947Z,0.92
2022-12-12T04:41:28.141Z,1.12
2022-12-12T04:43:57.496Z,1.33
2022-12-12T04:46:29.582Z,0.97
2022-12-12T04:49:01.458Z,0.79
2022-12-12T04:51:32.868Z,0.61
2022-12-12T04:54:06.921Z,0.79
2022-12-12T04:56:37.886Z,0.82
2022-12-12T04:59:06.938Z,0.80
2022-12-12T05:01:41.240Z,0.55
2022-12-12T05:04:15.122Z,0.38
2022-12-12T05:06:46.991Z,0.60
2022-12-12T05:09:18.648Z,0.93
2022-12-12T05:11:46.490Z,0.51
2022-12-12T05:14:17.126Z,0.44
2022-12-12T05:16:48.180Z,-0.11
2022-12-12T05:19:16.256Z,0.81
2022-12-12T05:21:43.994Z,0.79
2022-12-12T05:24:11.894Z,0.50
2022-12-12T05:26:41.032Z,0.57
2022-12-12T05:29:08.922Z,0.57
2022-12-12T05:31:37.052Z,-0.01
2022-12-12T05:34:05.102Z,0.47
2022-12-12T05:36:32.935Z,0.16
2022-12-12T05:39:00.675Z,0.17
2022-12-12T05:41:28.429Z,0.48
2022-12-12T05:43:57.628Z,0.61
2022-12-12T05:46:25.609Z,0.29
2022-12-12T05:48:53.344Z,0.73
2022-12-12T05:51:22.283Z,0.39
2022-12-12T05:53:50.081Z,-0.27
2022-12-12T05:56:17.869Z,0.31
2022-12-12T05:58:45.624Z,0.39
2022-12-12T06:01:14.705Z,0.39
2022-12-12T06:03:42.433Z,0.54
2022-12-12T06:06:10.212Z,0.23
2022-12-12T06:08:38.092Z,0.10
2022-12-12T06:11:07.871Z,0.41
2022-12-12T06:13:35.822Z,-0.03
2022-12-12T06:16:07.410Z,0.18
2022-12-12T06:18:37.174Z,-0.18
2022-12-12T06:21:06.794Z,0.16
2022-12-12T06:23:36.774Z,-0.38
2022-12-12T06:26:05.066Z,-0.26
2022-12-12T06:28:33.035Z,-0.62
2022-12-12T06:31:01.047Z,0.31
2022-12-12T06:33:31.725Z,0.66
2022-12-12T06:36:01.750Z,0.76
2022-12-12T06:38:30.299Z,0.18
2022-12-12T06:40:58.053Z,0.48
2022-12-12T06:43:26.061Z,0.27
2022-12-12T06:45:53.855Z,0.17
2022-12-12T06:48:21.704Z,0.37
2022-12-12T06:50:49.433Z,0.75
2022-12-12T06:53:18.503Z,0.50
2022-12-12T06:55:46.275Z,0.18
2022-12-12T06:58:13.986Z,0.49
2022-12-12T07:00:41.699Z,0.10
2022-12-12T07:03:13.269Z,-0.33
2022-12-12T07:05:41.179Z,-0.11
2022-12-12T07:08:08.911Z,0.08
2022-12-12T07:10:38.143Z,0.07
2022-12-12T07:13:05.877Z,0.05
2022-12-12T07:15:33.663Z,0.19
2022-12-12T07:18:01.447Z,0.37
2022-12-12T07:20:29.266Z,0.34
2022-12-12T07:22:57.018Z,0.32
2022-12-12T07:25:24.761Z,0.33
2022-12-12T07:27:54.401Z,-0.47
2022-12-12T07:30:22.148Z,-0.22
2022-12-12T07:32:49.888Z,0.08
2022-12-12T07:35:17.678Z,0.07
2022-12-12T07:37:45.441Z,-0.20
2022-12-12T07:40:13.450Z,-0.08
2022-12-12T07:42:41.211Z,0.08
2022-12-12T07:45:16.516Z,-0.27
2022-12-12T07:47:45.959Z,-0.48
2022-12-12T07:50:13.798Z,0.17
2022-12-12T07:52:41.720Z,0.18
2022-12-12T07:55:11.258Z,0.30
2022-12-12T07:57:39.788Z,0.53
2022-12-12T08:00:13.141Z,0.26
2022-12-12T08:02:41.505Z,-0.01
2022-12-12T08:05:10.152Z,0.33
2022-12-12T08:07:37.935Z,-0.09
2022-12-12T08:10:06.777Z,0.51
2022-12-12T08:12:34.522Z,0.40
2022-12-12T08:15:02.224Z,0.09
2022-12-12T08:17:31.313Z,-0.02
2022-12-12T08:19:59.059Z,0.27
2022-12-12T08:22:26.772Z,0.40
2022-12-12T08:24:54.517Z,0.07
2022-12-12T08:27:22.264Z,0.07
2022-12-12T08:29:52.796Z,-0.26
2022-12-12T08:32:20.711Z,0.01
2022-12-12T08:34:49.830Z,0.02
2022-12-12T08:37:17.650Z,0.21
2022-12-12T08:39:45.400Z,0.03
2022-12-12T08:42:13.368Z,-0.05
2022-12-12T08:44:41.216Z,-0.33
2022-12-12T08:47:09.058Z,-0.27
2022-12-12T08:49:36.797Z,-0.30
2022-12-12T08:52:09.878Z,-0.41
2022-12-12T08:54:37.782Z,-0.67
2022-12-12T08:57:05.599Z,-0.20
2022-12-12T08:59:33.299Z,-0.25
2022-12-12T09:02:01.119Z,-0.01
2022-12-12T09:04:28.892Z,-0.26
2022-12-12T09:06:56.619Z,0.09
2022-12-12T09:09:25.709Z,0.70
2022-12-12T09:11:53.479Z,0.26
2022-12-12T09:14:21.261Z,0.78
2022-12-12T09:16:48.998Z,0.40
2022-12-12T09:19:17.746Z,0.83
2022-12-12T09:21:46.363Z,0.83
2022-12-12T09:24:14.078Z,0.86
2022-12-12T09:26:43.230Z,0.32
2022-12-12T09:29:12.860Z,0.98
2022-12-12T09:31:40.587Z,0.84
2022-12-12T09:34:08.428Z,0.98
2022-12-12T09:36:36.170Z,0.78
2022-12-12T09:39:04.756Z,0.89
2022-12-12T09:41:32.684Z,0.84
2022-12-12T09:44:06.792Z,0.91
2022-12-12T09:46:38.629Z,0.71
2022-12-12T09:49:14.329Z,0.47
2022-12-12T09:51:45.011Z,0.44
2022-12-12T09:54:16.425Z,0.98
2022-12-12T09:56:56.599Z,0.51
2022-12-12T09:59:33.831Z,0.05
2022-12-12T10:02:13.297Z,0.90
2022-12-12T10:04:50.939Z,0.37
2022-12-12T10:07:23.536Z,0.86
2022-12-12T10:10:02.928Z,1.08
2022-12-12T10:12:33.058Z,0.90
2022-12-12T10:15:04.881Z,0.36
2022-12-12T10:17:35.601Z,1.06
2022-12-12T10:20:09.223Z,1.09
2022-12-12T10:22:42.852Z,0.34
2022-12-12T10:25:22.203Z,0.72
2022-12-12T10:27:52.814Z,0.62
2022-12-12T10:30:22.532Z,0.68
2022-12-12T10:33:13.862Z,0.79
2022-12-12T10:35:53.004Z,1.26
2022-12-12T10:38:42.569Z,1.18
2022-12-12T10:41:16.824Z,0.54
2022-12-12T10:43:58.200Z,1.06
2022-12-12T10:46:32.666Z,0.91
2022-12-12T10:49:00.661Z,1.23
2022-12-12T10:51:30.012Z,0.88
2022-12-12T10:53:57.878Z,0.66
2022-12-12T10:56:29.026Z,0.80
2022-12-12T10:58:58.671Z,0.22
2022-12-12T11:04:20.607Z,1.07
2022-12-12T11:06:51.788Z,1.08
2022-12-12T11:09:22.803Z,0.99
2022-12-12T11:12:00.296Z,0.93
2022-12-12T11:14:33.026Z,1.13
2022-12-12T11:17:02.297Z,0.73
2022-12-12T11:19:38.309Z,1.56
2022-12-12T11:22:06.404Z,1.05
2022-12-12T11:24:35.901Z,1.01
2022-12-12T11:27:07.191Z,1.40
2022-12-12T11:29:42.628Z,1.39
2022-12-12T11:32:15.702Z,1.78
2022-12-12T11:34:47.522Z,1.28
2022-12-12T11:37:17.799Z,1.31
2022-12-12T11:39:47.657Z,1.75
2022-12-12T11:42:21.609Z,1.18
2022-12-12T11:44:59.234Z,1.69
2022-12-12T11:47:30.540Z,1.81
2022-12-12T11:50:02.043Z,2.08
2022-12-12T11:52:34.232Z,1.84
2022-12-12T11:55:02.169Z,1.83
2022-12-12T11:57:51.140Z,2.52
2022-12-12T12:00:21.709Z,2.96
2022-12-12T12:03:25.373Z,3.09
2022-12-12T12:06:14.515Z,4.24
2022-12-12T12:08:57.594Z,4.02
2022-12-12T12:11:34.061Z,3.57
2022-12-12T12:14:20.531Z,4.27
2022-12-12T12:16:57.796Z,5.12
2022-12-12T12:19:38.171Z,4.67
2022-12-12T12:22:16.161Z,5.19
2022-12-12T12:25:01.322Z,5.64
2022-12-12T12:27:38.557Z,5.20
2022-12-12T12:30:21.702Z,6.04
2022-12-12T12:33:03.902Z,5.26
2022-12-12T12:35:38.099Z,4.99
2022-12-12T12:38:20.664Z,4.64
2022-12-12T12:41:07.558Z,3.67
2022-12-12T12:43:55.903Z,3.73
2022-12-12T12:46:33.346Z,3.62
2022-12-12T12:49:06.112Z,3.34
2022-12-12T12:51:41.185Z,3.14
2022-12-12T12:54:17.648Z,2.76
2022-12-12T12:56:50.481Z,2.16
2022-12-12T12:59:22.890Z,2.04
2022-12-12T13:01:53.115Z,1.76
2022-12-12T13:04:23.975Z,1.45
2022-12-12T13:06:58.376Z,1.65
2022-12-12T13:09:35.159Z,1.67
2022-12-12T13:12:10.297Z,0.86
2022-12-12T13:14:47.219Z,1.40
2022-12-12T13:17:19.466Z,1.46
2022-12-12T13:19:49.952Z,1.19
2022-12-12T13:22:28.229Z,1.44
2022-12-12T13:25:06.422Z,1.56
2022-12-12T13:27:41.119Z,0.81
2022-12-12T13:30:20.839Z,1.32
2022-12-12T13:33:29.074Z,1.46
2022-12-12T13:36:05.583Z,1.43
2022-12-12T13:38:35.798Z,1.32
2022-12-12T13:41:06.332Z,1.21
2022-12-12T13:43:45.059Z,1.61
2022-12-12T13:46:35.974Z,1.65
2022-12-12T13:49:24.632Z,1.53
2022-12-12T13:51:52.418Z,1.62
2022-12-12T13:54:52.358Z,1.68
2022-12-12T13:57:33.655Z,1.69
2022-12-12T14:00:29.175Z,1.80
2022-12-12T14:03:03.459Z,1.44
2022-12-12T14:05:34.854Z,1.44
2022-12-12T14:08:19.903Z,1.36
2022-12-12T14:10:56.997Z,1.65
2022-12-12T14:13:40.032Z,1.90
2022-12-12T14:16:18.961Z,1.97
2022-12-12T14:19:01.880Z,1.98
2022-12-12T14:21:42.325Z,2.00
2022-12-12T14:24:59.326Z,2.30
2022-12-12T14:28:04.062Z,1.67
2022-12-12T14:30:44.545Z,1.65
2022-12-12T14:33:43.421Z,1.92
2022-12-12T14:36:30.146Z,1.69
2022-12-12T14:39:11.426Z,1.49
2022-12-12T14:41:40.494Z,1.79
2022-12-12T14:44:36.901Z,2.01
2022-12-12T14:47:09.040Z,2.12
2022-12-12T14:49:37.291Z,1.98
2022-12-12T14:52:05.204Z,1.71
2022-12-12T14:54:33.123Z,1.47
2022-12-12T14:57:01.405Z,1.74
2022-12-12T14:59:33.838Z,1.82
2022-12-12T15:02:07.115Z,1.69
2022-12-12T15:04:36.978Z,1.98
2022-12-12T15:07:06.006Z,1.52
2022-12-12T15:09:35.794Z,1.29
2022-12-12T15:12:15.340Z,1.38
2022-12-12T15:14:55.486Z,1.74
2022-12-12T15:17:28.493Z,1.98
2022-12-12T15:19:59.571Z,1.91
2022-12-12T15:22:29.692Z,1.72
2022-12-12T15:25:00.038Z,1.73
2022-12-12T15:27:32.113Z,1.94
2022-12-12T15:30:03.292Z,1.86
2022-12-12T15:32:31.260Z,1.58
2022-12-12T15:35:05.751Z,1.76
2022-12-12T15:37:34.897Z,1.99
2022-12-12T15:40:20.069Z,2.03
2022-12-12T15:42:52.432Z,2.51
2022-12-12T15:45:25.715Z,2.06
2022-12-12T15:47:56.492Z,1.82
2022-12-12T15:50:26.643Z,1.81
2022-12-12T15:53:03.893Z,2.08
2022-12-12T15:55:31.840Z,2.22
2022-12-12T15:57:59.701Z,2.24
2022-12-12T16:00:35.928Z,2.31
2022-12-12T16:03:07.443Z,1.97
2022-12-12T16:05:37.584Z,1.66
2022-12-12T16:08:31.699Z,2.32
2022-12-12T16:11:02.430Z,1.77
2022-12-12T16:13:37.949Z,2.17
2022-12-12T16:16:39.079Z,2.13
2022-12-12T16:19:21.220Z,1.97
2022-12-12T16:21:48.965Z,1.91
2022-12-12T16:24:23.672Z,2.00
2022-12-12T16:26:51.649Z,2.00
2022-12-12T16:29:19.674Z,2.23
2022-12-12T16:31:49.934Z,2.36
2022-12-12T16:34:18.025Z,2.14
2022-12-12T16:36:46.608Z,1.95
2022-12-12T16:39:17.163Z,2.25
2022-12-12T16:41:44.975Z,1.69
2022-12-12T16:44:12.709Z,2.37
2022-12-12T16:46:40.420Z,1.61
2022-12-12T16:49:15.307Z,2.44
2022-12-12T16:51:43.459Z,1.71
2022-12-12T16:54:16.902Z,1.90
2022-12-12T16:56:50.454Z,1.89
2022-12-12T16:59:18.221Z,1.85
2022-12-12T17:01:46.188Z,1.87
2022-12-12T17:04:22.217Z,1.65
2022-12-12T17:06:50.867Z,1.52
2022-12-12T17:09:18.661Z,2.24
2022-12-12T17:11:46.480Z,1.79
2022-12-12T17:14:19.010Z,2.11
2022-12-12T17:16:46.801Z,1.89
2022-12-12T17:19:14.540Z,2.15
2022-12-12T17:21:43.667Z,1.73
2022-12-12T17:24:11.502Z,1.56
2022-12-12T17:26:40.141Z,1.69
2022-12-12T17:29:08.717Z,1.91
2022-12-12T17:31:36.494Z,2.15
2022-12-12T17:34:04.993Z,2.13
2022-12-12T17:36:33.087Z,1.89
2022-12-12T17:39:02.188Z,1.86
2022-12-12T17:41:30.027Z,2.33
2022-12-12T17:43:58.232Z,1.73
2022-12-12T17:46:28.556Z,1.79
2022-12-12T17:48:59.030Z,1.61
2022-12-12T17:51:26.867Z,1.98
2022-12-12T17:53:55.681Z,1.77
2022-12-12T17:56:25.980Z,1.86
2022-12-12T17:58:54.684Z,1.33
2022-12-12T18:01:28.793Z,1.90
2022-12-12T18:03:57.541Z,1.90
2022-12-12T18:06:26.906Z,1.46
2022-12-12T18:08:55.572Z,2.13
2022-12-12T18:11:27.311Z,2.10
2022-12-12T18:13:57.572Z,1.62
2022-12-12T18:16:26.150Z,1.83
2022-12-12T18:18:54.947Z,1.64
2022-12-12T18:24:12.755Z,2.12
2022-12-12T18:26:41.867Z,2.07
2022-12-12T18:29:12.124Z,2.27
2022-12-12T18:31:40.446Z,2.01
2022-12-12T18:34:08.425Z,2.07
2022-12-12T18:36:36.661Z,2.04
2022-12-12T18:39:05.704Z,2.23
2022-12-12T18:41:36.362Z,2.53
2022-12-12T18:44:07.939Z,2.25
2022-12-12T18:46:42.276Z,1.51
2022-12-12T18:49:13.660Z,1.87
2022-12-12T18:51:41.437Z,1.39
2022-12-12T18:54:14.322Z,1.92
2022-12-12T18:56:44.967Z,1.48
2022-12-12T18:59:14.898Z,1.30
2022-12-12T19:01:42.880Z,1.81
2022-12-12T19:04:14.129Z,1.55
2022-12-12T19:06:44.240Z,1.46
2022-12-12T19:09:15.322Z,1.76
2022-12-12T19:11:43.657Z,1.53
2022-12-12T19:14:13.089Z,1.68
2022-12-12T19:16:42.645Z,1.52
2022-12-12T19:19:10.483Z,1.15
2022-12-12T19:21:38.756Z,1.18
2022-12-12T19:24:09.236Z,0.95
2022-12-12T19:26:38.735Z,0.72
2022-12-12T19:29:08.782Z,1.01
2022-12-12T19:31:37.597Z,0.91
2022-12-12T19:34:09.063Z,0.77
2022-12-12T19:36:37.306Z,0.82
2022-12-12T19:39:07.247Z,0.68
2022-12-12T19:41:36.334Z,0.57
2022-12-12T19:44:08.611Z,0.44
2022-12-12T19:46:36.717Z,0.73
2022-12-12T19:49:08.620Z,0.44
2022-12-12T19:51:39.285Z,0.54
2022-12-12T19:54:10.040Z,1.18
2022-12-12T19:56:40.616Z,1.08
2022-12-12T19:59:09.576Z,0.88
2022-12-12T20:01:38.877Z,0.82
2022-12-12T20:04:09.803Z,1.22
2022-12-12T20:06:44.887Z,1.29
2022-12-12T20:09:14.890Z,1.06
2022-12-12T20:11:45.136Z,1.15
2022-12-12T20:14:14.023Z,0.86
2022-12-12T20:16:41.883Z,0.75
2022-12-12T20:19:12.072Z,0.92
2022-12-12T20:24:32.600Z,1.14
2022-12-12T20:27:03.014Z,0.71
2022-12-12T20:29:31.357Z,1.18
2022-12-12T20:32:01.220Z,1.16
2022-12-12T20:34:30.914Z,1.03
2022-12-12T20:36:58.897Z,0.91
2022-12-12T20:39:26.856Z,1.22
2022-12-12T20:41:56.577Z,1.12
2022-12-12T20:44:25.677Z,1.36
2022-12-12T20:46:53.923Z,0.85
2022-12-12T20:49:24.585Z,0.85
2022-12-12T20:51:55.798Z,1.30
2022-12-12T20:54:24.794Z,1.07
2022-12-12T20:56:53.285Z,1.55
2022-12-12T20:59:21.092Z,1.76
2022-12-12T21:01:48.940Z,2.14
2022-12-12T21:04:17.049Z,2.15
2022-12-12T21:06:49.427Z,1.58
2022-12-12T21:09:24.282Z,1.69
2022-12-12T21:11:53.086Z,1.52
2022-12-12T21:14:20.858Z,1.99
2022-12-12T21:16:48.712Z,1.52
2022-12-12T21:19:18.933Z,1.69
2022-12-12T21:21:47.064Z,2.04
2022-12-12T21:24:16.741Z,2.19
2022-12-12T21:26:46.621Z,2.01
2022-12-12T21:29:15.369Z,2.25
2022-12-12T21:31:50.451Z,2.08
2022-12-12T21:34:19.299Z,1.66
2022-12-12T21:36:47.065Z,2.14
2022-12-12T21:39:14.923Z,1.73
2022-12-12T21:41:43.920Z,2.06
2022-12-12T21:44:13.276Z,2.23
2022-12-12T21:46:43.248Z,2.12
2022-12-12T21:49:30.904Z,1.71
2022-12-12T21:52:00.931Z,1.91
2022-12-12T21:54:30.089Z,1.91
2022-12-12T21:56:59.064Z,2.00
2022-12-12T21:59:28.907Z,2.26
2022-12-12T22:01:58.056Z,2.03
2022-12-12T22:04:26.453Z,1.75
2022-12-12T22:06:54.202Z,2.06
2022-12-12T22:09:23.425Z,2.19
2022-12-12T22:11:52.129Z,1.77
2022-12-12T22:14:21.527Z,1.83
2022-12-12T22:16:51.108Z,2.24
2022-12-12T22:19:19.301Z,2.06
2022-12-12T22:21:49.170Z,2.22
2022-12-12T22:24:17.683Z,1.77
2022-12-12T22:26:46.771Z,2.13
2022-12-12T22:29:16.827Z,2.65
2022-12-12T22:31:45.872Z,2.50
2022-12-12T22:34:17.699Z,2.03
2022-12-12T22:36:46.387Z,2.01
2022-12-12T22:39:17.709Z,2.25
2022-12-12T22:41:45.808Z,2.19
2022-12-12T22:44:16.682Z,2.32
2022-12-12T22:46:45.362Z,2.49
2022-12-12T22:49:16.205Z,2.45
2022-12-12T22:51:44.515Z,2.38
2022-12-12T22:54:12.994Z,2.62
2022-12-12T22:56:41.770Z,2.60
2022-12-12T22:59:11.367Z,2.11
2022-12-12T23:01:39.115Z,2.16
2022-12-12T23:04:07.131Z,2.58
2022-12-12T23:06:37.278Z,2.43
2022-12-12T23:09:08.600Z,2.37
2022-12-12T23:11:36.954Z,2.48
2022-12-12T23:14:07.332Z,2.29
2022-12-12T23:16:36.080Z,2.41
2022-12-12T23:19:05.544Z,2.49
2022-12-12T23:21:33.758Z,2.16
2022-12-12T23:24:03.715Z,1.99
2022-12-12T23:26:32.584Z,2.01
2022-12-12T23:29:01.129Z,1.74
2022-12-12T23:31:32.144Z,1.91
2022-12-12T23:34:01.941Z,1.85
2022-12-12T23:36:30.374Z,1.94
2022-12-12T23:38:59.797Z,1.71
2022-12-12T23:41:29.142Z,1.78
2022-12-12T23:43:57.102Z,1.87
2022-12-12T23:46:29.363Z,1.93
2022-12-12T23:48:58.329Z,1.78
2022-12-12T23:51:27.737Z,1.14
2022-12-12T23:53:56.828Z,1.81
2022-12-12T23:56:24.574Z,1.52
2022-12-12T23:58:54.374Z,1.42
